sensor_id;sensor_type;location;lat;lon;timestamp;P1;durP1;ratioP1;P2;durP2;ratioP2
31990;SDS011;18508;49.386;8.370;2023-04-15T00:01:56;8.73;;;3.42;;
31990;SDS011;18508;49.386;8.370;2023-04-15T00:04:30;9.45;;;3.40;;
31990;SDS011;18508;49.386;8.370;2023-04-15T00:06:59;7.32;;;3.35;;
31990;SDS011;18508;49.386;8.370;2023-04-15T00:09:34;8.93;;;3.47;;
31990;SDS011;18508;49.386;8.370;2023-04-15T00:12:02;9.65;;;3.72;;
31990;SDS011;18508;49.386;8.370;2023-04-15T00:14:32;11.45;;;4.95;;
31990;SDS011;18508;49.386;8.370;2023-04-15T00:17:00;6.40;;;3.38;;
31990;SDS011;18508;49.386;8.370;2023-04-15T00:19:29;6.43;;;3.22;;
31990;SDS011;18508;49.386;8.370;2023-04-15T00:22:05;9.25;;;3.97;;
31990;SDS011;18508;49.386;8.370;2023-04-15T00:24:33;8.20;;;4.13;;
31990;SDS011;18508;49.386;8.370;2023-04-15T00:27:02;8.15;;;3.70;;
31990;SDS011;18508;49.386;8.370;2023-04-15T00:29:30;11.88;;;4.07;;
31990;SDS011;18508;49.386;8.370;2023-04-15T00:32:02;13.23;;;5.53;;
31990;SDS011;18508;49.386;8.370;2023-04-15T00:34:30;15.75;;;6.45;;
31990;SDS011;18508;49.386;8.370;2023-04-15T00:36:58;11.18;;;5.53;;
31990;SDS011;18508;49.386;8.370;2023-04-15T00:39:29;11.80;;;5.43;;
31990;SDS011;18508;49.386;8.370;2023-04-15T00:41:57;10.35;;;4.80;;
31990;SDS011;18508;49.386;8.370;2023-04-15T00:44:25;11.15;;;5.05;;
31990;SDS011;18508;49.386;8.370;2023-04-15T00:46:54;8.80;;;4.45;;
31990;SDS011;18508;49.386;8.370;2023-04-15T00:49:23;9.23;;;3.92;;
31990;SDS011;18508;49.386;8.370;2023-04-15T00:51:53;9.02;;;4.45;;
31990;SDS011;18508;49.386;8.370;2023-04-15T00:54:23;10.75;;;4.05;;
31990;SDS011;18508;49.386;8.370;2023-04-15T00:56:53;9.00;;;3.45;;
31990;SDS011;18508;49.386;8.370;2023-04-15T00:59:22;10.65;;;4.43;;
31990;SDS011;18508;49.386;8.370;2023-04-15T01:01:51;8.77;;;3.67;;
31990;SDS011;18508;49.386;8.370;2023-04-15T01:04:20;12.60;;;5.07;;
31990;SDS011;18508;49.386;8.370;2023-04-15T01:06:48;11.55;;;3.60;;
31990;SDS011;18508;49.386;8.370;2023-04-15T01:09:16;8.48;;;3.90;;
31990;SDS011;18508;49.386;8.370;2023-04-15T01:11:47;11.23;;;4.05;;
31990;SDS011;18508;49.386;8.370;2023-04-15T01:14:18;8.50;;;3.25;;
31990;SDS011;18508;49.386;8.370;2023-04-15T01:16:51;9.90;;;4.35;;
31990;SDS011;18508;49.386;8.370;2023-04-15T01:19:20;11.20;;;3.97;;
31990;SDS011;18508;49.386;8.370;2023-04-15T01:21:50;10.07;;;4.15;;
31990;SDS011;18508;49.386;8.370;2023-04-15T01:24:19;8.57;;;4.43;;
31990;SDS011;18508;49.386;8.370;2023-04-15T01:26:49;10.52;;;4.38;;
31990;SDS011;18508;49.386;8.370;2023-04-15T01:29:17;9.13;;;4.10;;
31990;SDS011;18508;49.386;8.370;2023-04-15T01:31:50;10.10;;;4.65;;
31990;SDS011;18508;49.386;8.370;2023-04-15T01:34:20;9.45;;;4.38;;
31990;SDS011;18508;49.386;8.370;2023-04-15T01:36:49;8.05;;;4.28;;
31990;SDS011;18508;49.386;8.370;2023-04-15T01:39:19;7.65;;;4.32;;
31990;SDS011;18508;49.386;8.370;2023-04-15T01:41:49;6.55;;;4.03;;
31990;SDS011;18508;49.386;8.370;2023-04-15T01:44:17;11.52;;;4.72;;
31990;SDS011;18508;49.386;8.370;2023-04-15T01:46:46;9.05;;;4.15;;
31990;SDS011;18508;49.386;8.370;2023-04-15T01:49:14;12.77;;;4.78;;
31990;SDS011;18508;49.386;8.370;2023-04-15T01:51:43;10.05;;;5.28;;
31990;SDS011;18508;49.386;8.370;2023-04-15T01:54:12;9.77;;;4.68;;
31990;SDS011;18508;49.386;8.370;2023-04-15T01:56:41;11.65;;;4.32;;
31990;SDS011;18508;49.386;8.370;2023-04-15T01:59:10;10.38;;;4.28;;
31990;SDS011;18508;49.386;8.370;2023-04-15T02:01:39;11.90;;;5.07;;
31990;SDS011;18508;49.386;8.370;2023-04-15T02:04:07;10.63;;;4.95;;
31990;SDS011;18508;49.386;8.370;2023-04-15T02:06:41;10.43;;;5.22;;
31990;SDS011;18508;49.386;8.370;2023-04-15T02:09:13;9.02;;;4.93;;
31990;SDS011;18508;49.386;8.370;2023-04-15T02:11:43;12.82;;;4.57;;
31990;SDS011;18508;49.386;8.370;2023-04-15T02:14:16;7.03;;;4.10;;
31990;SDS011;18508;49.386;8.370;2023-04-15T02:16:44;7.97;;;4.18;;
31990;SDS011;18508;49.386;8.370;2023-04-15T02:19:13;8.23;;;4.82;;
31990;SDS011;18508;49.386;8.370;2023-04-15T02:21:45;10.20;;;4.15;;
31990;SDS011;18508;49.386;8.370;2023-04-15T02:24:13;11.52;;;4.97;;
31990;SDS011;18508;49.386;8.370;2023-04-15T02:26:43;10.07;;;5.40;;
31990;SDS011;18508;49.386;8.370;2023-04-15T02:29:13;9.18;;;4.55;;
31990;SDS011;18508;49.386;8.370;2023-04-15T02:31:41;10.23;;;5.07;;
31990;SDS011;18508;49.386;8.370;2023-04-15T02:34:10;8.65;;;4.55;;
31990;SDS011;18508;49.386;8.370;2023-04-15T02:36:40;9.57;;;4.35;;
31990;SDS011;18508;49.386;8.370;2023-04-15T02:39:08;8.75;;;4.68;;
31990;SDS011;18508;49.386;8.370;2023-04-15T02:41:40;10.48;;;4.88;;
31990;SDS011;18508;49.386;8.370;2023-04-15T02:44:12;12.43;;;5.35;;
31990;SDS011;18508;49.386;8.370;2023-04-15T02:46:42;10.57;;;5.55;;
31990;SDS011;18508;49.386;8.370;2023-04-15T02:49:14;10.23;;;5.13;;
31990;SDS011;18508;49.386;8.370;2023-04-15T02:51:42;10.30;;;5.18;;
31990;SDS011;18508;49.386;8.370;2023-04-15T02:54:17;9.37;;;4.67;;
31990;SDS011;18508;49.386;8.370;2023-04-15T02:56:48;11.10;;;4.47;;
31990;SDS011;18508;49.386;8.370;2023-04-15T02:59:18;9.60;;;4.90;;
31990;SDS011;18508;49.386;8.370;2023-04-15T03:01:46;8.57;;;4.50;;
31990;SDS011;18508;49.386;8.370;2023-04-15T03:04:16;10.68;;;4.28;;
31990;SDS011;18508;49.386;8.370;2023-04-15T03:06:44;10.88;;;4.68;;
31990;SDS011;18508;49.386;8.370;2023-04-15T03:09:12;10.95;;;5.00;;
31990;SDS011;18508;49.386;8.370;2023-04-15T03:11:40;10.25;;;5.22;;
31990;SDS011;18508;49.386;8.370;2023-04-15T03:14:08;10.52;;;5.03;;
31990;SDS011;18508;49.386;8.370;2023-04-15T03:16:38;11.20;;;5.60;;
31990;SDS011;18508;49.386;8.370;2023-04-15T03:19:06;8.02;;;5.03;;
31990;SDS011;18508;49.386;8.370;2023-04-15T03:21:35;10.43;;;5.05;;
31990;SDS011;18508;49.386;8.370;2023-04-15T03:24:03;14.38;;;5.13;;
31990;SDS011;18508;49.386;8.370;2023-04-15T03:26:37;10.60;;;4.80;;
31990;SDS011;18508;49.386;8.370;2023-04-15T03:29:05;11.45;;;5.57;;
31990;SDS011;18508;49.386;8.370;2023-04-15T03:31:34;11.15;;;4.82;;
31990;SDS011;18508;49.386;8.370;2023-04-15T03:34:05;10.85;;;4.65;;
31990;SDS011;18508;49.386;8.370;2023-04-15T03:36:33;13.48;;;5.43;;
31990;SDS011;18508;49.386;8.370;2023-04-15T03:39:01;11.50;;;5.38;;
31990;SDS011;18508;49.386;8.370;2023-04-15T03:41:29;12.25;;;5.05;;
31990;SDS011;18508;49.386;8.370;2023-04-15T03:43:58;9.30;;;5.10;;
31990;SDS011;18508;49.386;8.370;2023-04-15T03:46:26;12.13;;;4.88;;
31990;SDS011;18508;49.386;8.370;2023-04-15T03:48:54;10.02;;;4.85;;
31990;SDS011;18508;49.386;8.370;2023-04-15T03:51:24;11.13;;;5.07;;
31990;SDS011;18508;49.386;8.370;2023-04-15T03:53:52;10.65;;;5.00;;
31990;SDS011;18508;49.386;8.370;2023-04-15T03:56:25;10.25;;;4.90;;
31990;SDS011;18508;49.386;8.370;2023-04-15T03:58:53;10.80;;;5.05;;
31990;SDS011;18508;49.386;8.370;2023-04-15T04:01:21;9.57;;;5.32;;
31990;SDS011;18508;49.386;8.370;2023-04-15T04:03:49;9.70;;;5.07;;
31990;SDS011;18508;49.386;8.370;2023-04-15T04:06:18;9.13;;;4.90;;
31990;SDS011;18508;49.386;8.370;2023-04-15T04:08:48;9.48;;;4.80;;
31990;SDS011;18508;49.386;8.370;2023-04-15T04:11:16;9.25;;;4.80;;
31990;SDS011;18508;49.386;8.370;2023-04-15T04:13:47;15.00;;;5.38;;
31990;SDS011;18508;49.386;8.370;2023-04-15T04:16:15;11.80;;;5.13;;
31990;SDS011;18508;49.386;8.370;2023-04-15T04:18:44;10.55;;;5.18;;
31990;SDS011;18508;49.386;8.370;2023-04-15T04:21:13;16.00;;;5.30;;
31990;SDS011;18508;49.386;8.370;2023-04-15T04:23:42;12.25;;;5.78;;
31990;SDS011;18508;49.386;8.370;2023-04-15T04:26:12;13.63;;;5.38;;
31990;SDS011;18508;49.386;8.370;2023-04-15T04:28:40;9.70;;;4.70;;
31990;SDS011;18508;49.386;8.370;2023-04-15T04:31:09;13.52;;;5.97;;
31990;SDS011;18508;49.386;8.370;2023-04-15T04:33:38;10.82;;;6.00;;
31990;SDS011;18508;49.386;8.370;2023-04-15T04:36:07;12.70;;;5.43;;
31990;SDS011;18508;49.386;8.370;2023-04-15T04:38:37;9.95;;;6.00;;
31990;SDS011;18508;49.386;8.370;2023-04-15T04:41:06;18.55;;;5.53;;
31990;SDS011;18508;49.386;8.370;2023-04-15T04:43:36;11.52;;;5.15;;
31990;SDS011;18508;49.386;8.370;2023-04-15T04:46:06;13.00;;;5.90;;
31990;SDS011;18508;49.386;8.370;2023-04-15T04:48:34;11.93;;;5.43;;
31990;SDS011;18508;49.386;8.370;2023-04-15T04:51:03;12.98;;;5.88;;
31990;SDS011;18508;49.386;8.370;2023-04-15T04:53:31;13.68;;;5.90;;
31990;SDS011;18508;49.386;8.370;2023-04-15T04:55:59;13.43;;;6.15;;
31990;SDS011;18508;49.386;8.370;2023-04-15T04:58:28;12.18;;;6.25;;
31990;SDS011;18508;49.386;8.370;2023-04-15T05:00:58;12.90;;;6.10;;
31990;SDS011;18508;49.386;8.370;2023-04-15T05:03:29;10.05;;;5.93;;
31990;SDS011;18508;49.386;8.370;2023-04-15T05:05:57;12.98;;;6.57;;
31990;SDS011;18508;49.386;8.370;2023-04-15T05:08:26;9.90;;;5.60;;
31990;SDS011;18508;49.386;8.370;2023-04-15T05:10:54;10.82;;;5.45;;
31990;SDS011;18508;49.386;8.370;2023-04-15T05:13:22;14.98;;;6.43;;
31990;SDS011;18508;49.386;8.370;2023-04-15T05:15:51;15.00;;;6.63;;
31990;SDS011;18508;49.386;8.370;2023-04-15T05:18:20;11.90;;;5.20;;
31990;SDS011;18508;49.386;8.370;2023-04-15T05:20:49;16.50;;;6.07;;
31990;SDS011;18508;49.386;8.370;2023-04-15T05:23:17;13.10;;;5.50;;
31990;SDS011;18508;49.386;8.370;2023-04-15T05:25:48;9.05;;;5.10;;
31990;SDS011;18508;49.386;8.370;2023-04-15T05:28:16;11.30;;;5.38;;
31990;SDS011;18508;49.386;8.370;2023-04-15T05:30:44;11.23;;;6.35;;
31990;SDS011;18508;49.386;8.370;2023-04-15T05:33:15;15.57;;;6.78;;
31990;SDS011;18508;49.386;8.370;2023-04-15T05:35:48;11.13;;;6.05;;
31990;SDS011;18508;49.386;8.370;2023-04-15T05:38:17;11.68;;;6.03;;
31990;SDS011;18508;49.386;8.370;2023-04-15T05:40:45;15.38;;;6.90;;
31990;SDS011;18508;49.386;8.370;2023-04-15T05:43:14;14.00;;;6.82;;
31990;SDS011;18508;49.386;8.370;2023-04-15T05:45:42;12.77;;;6.45;;
31990;SDS011;18508;49.386;8.370;2023-04-15T05:48:10;15.38;;;7.18;;
31990;SDS011;18508;49.386;8.370;2023-04-15T05:50:39;11.40;;;5.40;;
31990;SDS011;18508;49.386;8.370;2023-04-15T05:53:09;12.50;;;6.35;;
31990;SDS011;18508;49.386;8.370;2023-04-15T05:55:37;13.05;;;6.18;;
31990;SDS011;18508;49.386;8.370;2023-04-15T05:58:05;18.52;;;6.03;;
31990;SDS011;18508;49.386;8.370;2023-04-15T06:00:34;12.00;;;5.78;;
31990;SDS011;18508;49.386;8.370;2023-04-15T06:03:02;14.27;;;5.65;;
31990;SDS011;18508;49.386;8.370;2023-04-15T06:05:31;10.07;;;5.55;;
31990;SDS011;18508;49.386;8.370;2023-04-15T06:08:00;10.35;;;4.65;;
31990;SDS011;18508;49.386;8.370;2023-04-15T06:10:29;9.88;;;5.00;;
31990;SDS011;18508;49.386;8.370;2023-04-15T06:13:01;9.40;;;4.88;;
31990;SDS011;18508;49.386;8.370;2023-04-15T06:15:30;10.90;;;5.47;;
31990;SDS011;18508;49.386;8.370;2023-04-15T06:17:58;12.05;;;5.45;;
31990;SDS011;18508;49.386;8.370;2023-04-15T06:20:26;11.75;;;5.53;;
31990;SDS011;18508;49.386;8.370;2023-04-15T06:22:54;12.77;;;5.55;;
31990;SDS011;18508;49.386;8.370;2023-04-15T06:25:22;10.73;;;5.55;;
31990;SDS011;18508;49.386;8.370;2023-04-15T06:27:54;10.23;;;5.28;;
31990;SDS011;18508;49.386;8.370;2023-04-15T06:30:22;11.40;;;5.10;;
31990;SDS011;18508;49.386;8.370;2023-04-15T06:32:51;9.50;;;5.32;;
31990;SDS011;18508;49.386;8.370;2023-04-15T06:35:19;11.60;;;5.60;;
31990;SDS011;18508;49.386;8.370;2023-04-15T06:37:48;11.60;;;5.65;;
31990;SDS011;18508;49.386;8.370;2023-04-15T06:40:16;13.55;;;6.57;;
31990;SDS011;18508;49.386;8.370;2023-04-15T06:42:46;9.50;;;5.47;;
31990;SDS011;18508;49.386;8.370;2023-04-15T06:45:15;10.73;;;5.68;;
31990;SDS011;18508;49.386;8.370;2023-04-15T06:47:44;11.80;;;5.25;;
31990;SDS011;18508;49.386;8.370;2023-04-15T06:50:12;10.38;;;5.55;;
31990;SDS011;18508;49.386;8.370;2023-04-15T06:52:41;15.60;;;6.85;;
31990;SDS011;18508;49.386;8.370;2023-04-15T06:55:09;11.23;;;5.97;;
31990;SDS011;18508;49.386;8.370;2023-04-15T06:57:37;13.95;;;5.90;;
31990;SDS011;18508;49.386;8.370;2023-04-15T07:00:06;9.77;;;5.50;;
31990;SDS011;18508;49.386;8.370;2023-04-15T07:02:38;8.38;;;4.75;;
31990;SDS011;18508;49.386;8.370;2023-04-15T07:05:07;9.63;;;5.95;;
31990;SDS011;18508;49.386;8.370;2023-04-15T07:07:36;15.02;;;6.28;;
31990;SDS011;18508;49.386;8.370;2023-04-15T07:10:05;10.32;;;6.20;;
31990;SDS011;18508;49.386;8.370;2023-04-15T07:12:33;15.15;;;6.07;;
31990;SDS011;18508;49.386;8.370;2023-04-15T07:15:04;9.75;;;5.57;;
31990;SDS011;18508;49.386;8.370;2023-04-15T07:17:33;11.35;;;5.28;;
31990;SDS011;18508;49.386;8.370;2023-04-15T07:20:07;11.20;;;5.43;;
31990;SDS011;18508;49.386;8.370;2023-04-15T07:22:36;10.98;;;6.10;;
31990;SDS011;18508;49.386;8.370;2023-04-15T07:25:05;11.50;;;6.60;;
31990;SDS011;18508;49.386;8.370;2023-04-15T07:27:35;19.75;;;7.32;;
31990;SDS011;18508;49.386;8.370;2023-04-15T07:30:03;16.98;;;7.25;;
31990;SDS011;18508;49.386;8.370;2023-04-15T07:32:32;16.27;;;6.43;;
31990;SDS011;18508;49.386;8.370;2023-04-15T07:35:04;11.07;;;6.45;;
31990;SDS011;18508;49.386;8.370;2023-04-15T07:37:32;15.80;;;7.65;;
31990;SDS011;18508;49.386;8.370;2023-04-15T07:40:00;13.85;;;6.70;;
31990;SDS011;18508;49.386;8.370;2023-04-15T07:42:32;10.63;;;6.18;;
31990;SDS011;18508;49.386;8.370;2023-04-15T07:45:00;10.60;;;6.05;;
31990;SDS011;18508;49.386;8.370;2023-04-15T07:47:29;10.73;;;6.05;;
31990;SDS011;18508;49.386;8.370;2023-04-15T07:50:01;11.40;;;6.07;;
31990;SDS011;18508;49.386;8.370;2023-04-15T07:52:34;15.27;;;6.45;;
31990;SDS011;18508;49.386;8.370;2023-04-15T07:55:04;11.02;;;5.68;;
31990;SDS011;18508;49.386;8.370;2023-04-15T07:57:33;11.60;;;5.78;;
31990;SDS011;18508;49.386;8.370;2023-04-15T08:00:03;11.60;;;5.95;;
31990;SDS011;18508;49.386;8.370;2023-04-15T08:02:35;11.73;;;6.88;;
31990;SDS011;18508;49.386;8.370;2023-04-15T08:05:07;11.98;;;5.88;;
31990;SDS011;18508;49.386;8.370;2023-04-15T08:07:38;9.57;;;5.77;;
31990;SDS011;18508;49.386;8.370;2023-04-15T08:10:07;9.80;;;5.90;;
31990;SDS011;18508;49.386;8.370;2023-04-15T08:12:36;8.60;;;5.00;;
31990;SDS011;18508;49.386;8.370;2023-04-15T08:15:05;9.73;;;5.85;;
31990;SDS011;18508;49.386;8.370;2023-04-15T08:17:34;12.63;;;6.35;;
31990;SDS011;18508;49.386;8.370;2023-04-15T08:20:02;16.42;;;7.10;;
31990;SDS011;18508;49.386;8.370;2023-04-15T08:22:33;12.63;;;6.97;;
31990;SDS011;18508;49.386;8.370;2023-04-15T08:25:01;12.82;;;7.28;;
31990;SDS011;18508;49.386;8.370;2023-04-15T08:27:30;19.67;;;9.43;;
31990;SDS011;18508;49.386;8.370;2023-04-15T08:29:59;11.65;;;6.60;;
31990;SDS011;18508;49.386;8.370;2023-04-15T08:32:30;16.60;;;9.23;;
31990;SDS011;18508;49.386;8.370;2023-04-15T08:34:59;16.75;;;8.77;;
31990;SDS011;18508;49.386;8.370;2023-04-15T08:37:28;15.07;;;7.38;;
31990;SDS011;18508;49.386;8.370;2023-04-15T08:39:57;16.85;;;8.60;;
31990;SDS011;18508;49.386;8.370;2023-04-15T08:42:27;16.05;;;8.85;;
31990;SDS011;18508;49.386;8.370;2023-04-15T08:44:58;24.80;;;11.50;;
31990;SDS011;18508;49.386;8.370;2023-04-15T08:47:28;11.25;;;7.03;;
31990;SDS011;18508;49.386;8.370;2023-04-15T08:49:58;12.70;;;7.00;;
31990;SDS011;18508;49.386;8.370;2023-04-15T08:52:30;12.15;;;6.18;;
31990;SDS011;18508;49.386;8.370;2023-04-15T08:54:59;12.18;;;6.80;;
31990;SDS011;18508;49.386;8.370;2023-04-15T08:57:30;12.73;;;6.17;;
31990;SDS011;18508;49.386;8.370;2023-04-15T09:00:01;9.23;;;6.05;;
31990;SDS011;18508;49.386;8.370;2023-04-15T09:02:31;10.25;;;5.88;;
31990;SDS011;18508;49.386;8.370;2023-04-15T09:05:00;9.35;;;6.10;;
31990;SDS011;18508;49.386;8.370;2023-04-15T09:07:32;11.83;;;6.30;;
31990;SDS011;18508;49.386;8.370;2023-04-15T09:10:03;10.90;;;5.78;;
31990;SDS011;18508;49.386;8.370;2023-04-15T09:12:33;9.07;;;5.15;;
31990;SDS011;18508;49.386;8.370;2023-04-15T09:15:04;15.50;;;6.97;;
31990;SDS011;18508;49.386;8.370;2023-04-15T09:17:33;6.82;;;4.65;;
31990;SDS011;18508;49.386;8.370;2023-04-15T09:20:08;9.13;;;5.07;;
31990;SDS011;18508;49.386;8.370;2023-04-15T09:22:40;7.95;;;5.18;;
31990;SDS011;18508;49.386;8.370;2023-04-15T09:25:26;13.23;;;5.53;;
31990;SDS011;18508;49.386;8.370;2023-04-15T09:27:58;7.57;;;4.93;;
31990;SDS011;18508;49.386;8.370;2023-04-15T09:30:28;9.07;;;5.22;;
31990;SDS011;18508;49.386;8.370;2023-04-15T09:32:57;8.20;;;5.07;;
31990;SDS011;18508;49.386;8.370;2023-04-15T09:35:27;8.15;;;5.03;;
31990;SDS011;18508;49.386;8.370;2023-04-15T09:38:02;8.23;;;4.65;;
31990;SDS011;18508;49.386;8.370;2023-04-15T09:40:34;7.70;;;4.75;;
31990;SDS011;18508;49.386;8.370;2023-04-15T09:43:05;8.70;;;4.63;;
31990;SDS011;18508;49.386;8.370;2023-04-15T09:45:36;7.35;;;4.72;;
31990;SDS011;18508;49.386;8.370;2023-04-15T09:48:13;7.68;;;4.35;;
31990;SDS011;18508;49.386;8.370;2023-04-15T09:50:42;7.40;;;4.68;;
31990;SDS011;18508;49.386;8.370;2023-04-15T09:53:10;8.18;;;4.55;;
31990;SDS011;18508;49.386;8.370;2023-04-15T09:55:45;8.38;;;4.53;;
31990;SDS011;18508;49.386;8.370;2023-04-15T09:58:17;9.23;;;4.78;;
31990;SDS011;18508;49.386;8.370;2023-04-15T10:00:47;8.60;;;5.28;;
31990;SDS011;18508;49.386;8.370;2023-04-15T10:03:17;8.25;;;4.32;;
31990;SDS011;18508;49.386;8.370;2023-04-15T10:05:48;7.75;;;4.60;;
31990;SDS011;18508;49.386;8.370;2023-04-15T10:08:18;7.03;;;4.30;;
31990;SDS011;18508;49.386;8.370;2023-04-15T10:10:48;9.93;;;5.03;;
31990;SDS011;18508;49.386;8.370;2023-04-15T10:13:19;9.00;;;4.38;;
31990;SDS011;18508;49.386;8.370;2023-04-15T10:15:49;10.05;;;4.75;;
31990;SDS011;18508;49.386;8.370;2023-04-15T10:18:23;8.45;;;4.55;;
31990;SDS011;18508;49.386;8.370;2023-04-15T10:20:53;7.28;;;4.65;;
31990;SDS011;18508;49.386;8.370;2023-04-15T10:23:22;9.65;;;5.40;;
31990;SDS011;18508;49.386;8.370;2023-04-15T10:25:52;10.23;;;5.93;;
31990;SDS011;18508;49.386;8.370;2023-04-15T10:28:23;12.27;;;6.13;;
31990;SDS011;18508;49.386;8.370;2023-04-15T10:30:53;9.73;;;4.60;;
31990;SDS011;18508;49.386;8.370;2023-04-15T10:33:22;10.13;;;5.15;;
31990;SDS011;18508;49.386;8.370;2023-04-15T10:35:52;8.85;;;5.45;;
31990;SDS011;18508;49.386;8.370;2023-04-15T10:38:32;8.27;;;5.35;;
31990;SDS011;18508;49.386;8.370;2023-04-15T10:41:15;8.48;;;4.40;;
31990;SDS011;18508;49.386;8.370;2023-04-15T10:43:48;10.05;;;5.00;;
31990;SDS011;18508;49.386;8.370;2023-04-15T10:46:19;7.82;;;5.60;;
31990;SDS011;18508;49.386;8.370;2023-04-15T10:48:50;8.90;;;4.82;;
31990;SDS011;18508;49.386;8.370;2023-04-15T10:51:27;7.53;;;5.13;;
31990;SDS011;18508;49.386;8.370;2023-04-15T10:53:58;9.90;;;5.45;;
31990;SDS011;18508;49.386;8.370;2023-04-15T10:56:31;9.70;;;5.75;;
31990;SDS011;18508;49.386;8.370;2023-04-15T10:58:59;8.13;;;5.18;;
31990;SDS011;18508;49.386;8.370;2023-04-15T11:07:33;9.10;;;4.63;;
31990;SDS011;18508;49.386;8.370;2023-04-15T11:10:02;7.78;;;4.13;;
31990;SDS011;18508;49.386;8.370;2023-04-15T11:12:34;6.43;;;3.92;;
31990;SDS011;18508;49.386;8.370;2023-04-15T11:17:56;6.35;;;3.65;;
31990;SDS011;18508;49.386;8.370;2023-04-15T11:20:25;6.68;;;3.80;;
31990;SDS011;18508;49.386;8.370;2023-04-15T11:22:55;8.50;;;4.15;;
31990;SDS011;18508;49.386;8.370;2023-04-15T11:25:40;6.05;;;3.63;;
31990;SDS011;18508;49.386;8.370;2023-04-15T11:28:11;5.28;;;3.38;;
31990;SDS011;18508;49.386;8.370;2023-04-15T11:30:41;5.90;;;3.78;;
31990;SDS011;18508;49.386;8.370;2023-04-15T11:33:10;6.53;;;4.07;;
31990;SDS011;18508;49.386;8.370;2023-04-15T11:35:39;7.82;;;3.70;;
31990;SDS011;18508;49.386;8.370;2023-04-15T11:38:09;7.90;;;4.30;;
31990;SDS011;18508;49.386;8.370;2023-04-15T11:40:40;7.93;;;4.38;;
31990;SDS011;18508;49.386;8.370;2023-04-15T11:43:14;7.10;;;4.28;;
31990;SDS011;18508;49.386;8.370;2023-04-15T11:45:47;7.40;;;4.15;;
31990;SDS011;18508;49.386;8.370;2023-04-15T11:48:18;9.05;;;5.07;;
31990;SDS011;18508;49.386;8.370;2023-04-15T11:50:51;7.63;;;4.28;;
31990;SDS011;18508;49.386;8.370;2023-04-15T11:55:52;5.65;;;3.72;;
31990;SDS011;18508;49.386;8.370;2023-04-15T11:58:25;5.28;;;3.42;;
31990;SDS011;18508;49.386;8.370;2023-04-15T12:00:56;6.35;;;4.13;;
31990;SDS011;18508;49.386;8.370;2023-04-15T12:03:25;6.65;;;3.95;;
31990;SDS011;18508;49.386;8.370;2023-04-15T12:06:06;6.55;;;3.75;;
31990;SDS011;18508;49.386;8.370;2023-04-15T12:08:50;5.78;;;3.55;;
31990;SDS011;18508;49.386;8.370;2023-04-15T12:11:26;6.95;;;3.58;;
31990;SDS011;18508;49.386;8.370;2023-04-15T12:14:08;6.30;;;4.00;;
31990;SDS011;18508;49.386;8.370;2023-04-15T12:16:39;6.63;;;4.28;;
31990;SDS011;18508;49.386;8.370;2023-04-15T12:19:16;8.48;;;3.85;;
31990;SDS011;18508;49.386;8.370;2023-04-15T12:21:49;5.97;;;3.63;;
31990;SDS011;18508;49.386;8.370;2023-04-15T12:24:19;5.82;;;3.60;;
31990;SDS011;18508;49.386;8.370;2023-04-15T12:26:49;8.35;;;4.80;;
31990;SDS011;18508;49.386;8.370;2023-04-15T12:29:24;6.32;;;3.13;;
31990;SDS011;18508;49.386;8.370;2023-04-15T12:31:53;5.85;;;3.35;;
31990;SDS011;18508;49.386;8.370;2023-04-15T12:34:25;5.72;;;2.90;;
31990;SDS011;18508;49.386;8.370;2023-04-15T12:36:55;6.90;;;3.60;;
31990;SDS011;18508;49.386;8.370;2023-04-15T12:39:24;6.45;;;3.78;;
31990;SDS011;18508;49.386;8.370;2023-04-15T12:41:56;7.20;;;2.92;;
31990;SDS011;18508;49.386;8.370;2023-04-15T12:44:29;5.43;;;2.50;;
31990;SDS011;18508;49.386;8.370;2023-04-15T12:46:58;4.05;;;2.65;;
31990;SDS011;18508;49.386;8.370;2023-04-15T12:49:27;7.43;;;3.30;;
31990;SDS011;18508;49.386;8.370;2023-04-15T12:51:56;4.88;;;2.53;;
31990;SDS011;18508;49.386;8.370;2023-04-15T12:54:26;7.22;;;3.30;;
31990;SDS011;18508;49.386;8.370;2023-04-15T12:56:54;3.67;;;2.55;;
31990;SDS011;18508;49.386;8.370;2023-04-15T12:59:23;4.35;;;2.05;;
31990;SDS011;18508;49.386;8.370;2023-04-15T13:01:53;7.63;;;3.42;;
31990;SDS011;18508;49.386;8.370;2023-04-15T13:04:21;4.97;;;2.67;;
31990;SDS011;18508;49.386;8.370;2023-04-15T13:06:50;7.82;;;3.30;;
31990;SDS011;18508;49.386;8.370;2023-04-15T13:09:18;6.50;;;2.70;;
31990;SDS011;18508;49.386;8.370;2023-04-15T13:11:46;3.47;;;1.73;;
31990;SDS011;18508;49.386;8.370;2023-04-15T13:14:18;2.53;;;1.42;;
31990;SDS011;18508;49.386;8.370;2023-04-15T13:16:47;2.92;;;1.60;;
31990;SDS011;18508;49.386;8.370;2023-04-15T13:19:17;3.38;;;1.63;;
31990;SDS011;18508;49.386;8.370;2023-04-15T13:21:45;3.63;;;1.48;;
31990;SDS011;18508;49.386;8.370;2023-04-15T13:24:13;3.63;;;1.25;;
31990;SDS011;18508;49.386;8.370;2023-04-15T13:26:42;4.70;;;1.17;;
31990;SDS011;18508;49.386;8.370;2023-04-15T13:29:10;2.13;;;1.30;;
31990;SDS011;18508;49.386;8.370;2023-04-15T13:31:39;3.45;;;1.13;;
31990;SDS011;18508;49.386;8.370;2023-04-15T13:34:07;3.40;;;1.20;;
31990;SDS011;18508;49.386;8.370;2023-04-15T13:36:37;3.97;;;1.33;;
31990;SDS011;18508;49.386;8.370;2023-04-15T13:39:05;5.38;;;1.27;;
31990;SDS011;18508;49.386;8.370;2023-04-15T13:41:34;2.80;;;1.30;;
31990;SDS011;18508;49.386;8.370;2023-04-15T13:44:05;3.30;;;0.85;;
31990;SDS011;18508;49.386;8.370;2023-04-15T13:46:34;1.40;;;0.88;;
31990;SDS011;18508;49.386;8.370;2023-04-15T13:49:04;3.13;;;1.15;;
31990;SDS011;18508;49.386;8.370;2023-04-15T13:51:32;3.70;;;1.13;;
31990;SDS011;18508;49.386;8.370;2023-04-15T13:54:03;3.53;;;0.80;;
31990;SDS011;18508;49.386;8.370;2023-04-15T13:56:32;1.90;;;0.90;;
31990;SDS011;18508;49.386;8.370;2023-04-15T13:59:00;1.83;;;0.70;;
31990;SDS011;18508;49.386;8.370;2023-04-15T14:01:28;1.52;;;0.57;;
31990;SDS011;18508;49.386;8.370;2023-04-15T14:03:57;1.60;;;0.90;;
31990;SDS011;18508;49.386;8.370;2023-04-15T14:06:26;2.13;;;0.88;;
31990;SDS011;18508;49.386;8.370;2023-04-15T14:08:54;4.32;;;1.10;;
31990;SDS011;18508;49.386;8.370;2023-04-15T14:11:23;1.88;;;0.68;;
31990;SDS011;18508;49.386;8.370;2023-04-15T14:13:52;2.75;;;0.90;;
31990;SDS011;18508;49.386;8.370;2023-04-15T14:16:20;3.47;;;0.68;;
31990;SDS011;18508;49.386;8.370;2023-04-15T14:18:48;1.65;;;0.65;;
31990;SDS011;18508;49.386;8.370;2023-04-15T14:21:16;8.38;;;1.00;;
31990;SDS011;18508;49.386;8.370;2023-04-15T14:23:45;1.42;;;0.80;;
31990;SDS011;18508;49.386;8.370;2023-04-15T14:26:13;2.00;;;0.80;;
31990;SDS011;18508;49.386;8.370;2023-04-15T14:28:44;1.52;;;0.75;;
31990;SDS011;18508;49.386;8.370;2023-04-15T14:31:13;1.60;;;0.57;;
31990;SDS011;18508;49.386;8.370;2023-04-15T14:33:41;0.82;;;0.50;;
31990;SDS011;18508;49.386;8.370;2023-04-15T14:36:12;1.35;;;0.40;;
31990;SDS011;18508;49.386;8.370;2023-04-15T14:38:40;3.70;;;0.90;;
31990;SDS011;18508;49.386;8.370;2023-04-15T14:41:09;1.45;;;0.90;;
31990;SDS011;18508;49.386;8.370;2023-04-15T14:43:37;2.47;;;1.02;;
31990;SDS011;18508;49.386;8.370;2023-04-15T14:46:07;1.83;;;1.10;;
31990;SDS011;18508;49.386;8.370;2023-04-15T14:48:36;2.08;;;1.63;;
31990;SDS011;18508;49.386;8.370;2023-04-15T14:51:05;3.05;;;1.95;;
31990;SDS011;18508;49.386;8.370;2023-04-15T14:53:33;3.03;;;1.67;;
31990;SDS011;18508;49.386;8.370;2023-04-15T14:56:01;5.40;;;2.22;;
31990;SDS011;18508;49.386;8.370;2023-04-15T14:58:29;3.42;;;1.52;;
31990;SDS011;18508;49.386;8.370;2023-04-15T15:00:58;3.25;;;2.03;;
31990;SDS011;18508;49.386;8.370;2023-04-15T15:03:28;2.85;;;1.50;;
31990;SDS011;18508;49.386;8.370;2023-04-15T15:05:57;2.60;;;1.50;;
31990;SDS011;18508;49.386;8.370;2023-04-15T15:08:25;5.30;;;1.70;;